createdAt,value
2019-01-19T00:00:44.295Z,0.00
2019-01-19T00:01:44.298Z,0.00
2019-01-19T00:02:44.284Z,0.00
2019-01-19T00:03:44.250Z,0.00
2019-01-19T00:04:44.255Z,0.00
2019-01-19T00:05:44.233Z,0.00
2019-01-19T00:06:44.235Z,0.00
2019-01-19T00:07:44.236Z,0.00
2019-01-19T00:08:44.211Z,0.00
2019-01-19T00:09:44.229Z,0.00
2019-01-19T00:10:44.191Z,0.00
2019-01-19T00:11:44.173Z,0.00
2019-01-19T00:12:44.181Z,0.00
2019-01-19T00:13:44.145Z,0.00
2019-01-19T00:14:44.145Z,0.00
2019-01-19T00:15:44.130Z,0.00
2019-01-19T00:16:44.117Z,0.00
2019-01-19T00:17:44.116Z,0.00
2019-01-19T00:18:44.093Z,0.00
2019-01-19T00:19:44.081Z,0.00
2019-01-19T00:20:44.077Z,0.00
2019-01-19T00:21:44.055Z,0.00
2019-01-19T00:22:44.073Z,0.00
2019-01-19T00:23:44.035Z,0.00
2019-01-19T00:24:44.040Z,0.00
2019-01-19T00:25:44.016Z,0.00
2019-01-19T00:26:44.013Z,0.00
2019-01-19T00:27:44.025Z,0.00
2019-01-19T00:28:43.992Z,0.00
2019-01-19T00:29:43.979Z,0.00
2019-01-19T00:30:43.959Z,0.00
2019-01-19T00:31:43.948Z,0.00
2019-01-19T00:32:43.944Z,0.00
2019-01-19T00:33:43.935Z,0.00
2019-01-19T00:34:43.935Z,0.00
2019-01-19T00:35:43.902Z,0.00
2019-01-19T00:36:43.893Z,0.00
2019-01-19T00:37:43.885Z,0.00
2019-01-19T00:38:43.888Z,0.00
2019-01-19T00:39:43.868Z,0.00
2019-01-19T00:40:43.858Z,0.00
2019-01-19T00:41:43.842Z,0.00
2019-01-19T00:42:43.842Z,0.00
2019-01-19T00:43:43.853Z,0.00
2019-01-19T00:44:43.807Z,0.00
2019-01-19T00:45:43.800Z,0.00
2019-01-19T00:46:43.793Z,0.00
2019-01-19T00:47:43.779Z,0.00
2019-01-19T00:48:43.782Z,0.00
2019-01-19T00:49:43.758Z,0.00
2019-01-19T00:50:43.740Z,0.00
2019-01-19T00:51:43.729Z,0.00
2019-01-19T00:52:43.725Z,0.00
2019-01-19T00:53:43.730Z,0.00
2019-01-19T00:54:43.703Z,0.00
2019-01-19T00:55:43.683Z,0.00
2019-01-19T00:56:43.699Z,0.00
2019-01-19T00:57:43.669Z,0.00
2019-01-19T00:58:43.679Z,0.00
2019-01-19T00:59:43.651Z,0.00
2019-01-19T01:00:43.628Z,0.00
2019-01-19T01:01:43.632Z,0.00
2019-01-19T01:02:43.627Z,0.00
2019-01-19T01:03:43.629Z,0.00
2019-01-19T01:04:43.685Z,0.00
2019-01-19T01:05:43.588Z,0.00
2019-01-19T01:06:43.575Z,0.00
2019-01-19T01:07:43.562Z,0.00
2019-01-19T01:08:43.575Z,0.00
2019-01-19T01:09:43.548Z,0.00
2019-01-19T01:10:43.519Z,0.00
2019-01-19T01:11:43.516Z,0.00
2019-01-19T01:12:43.500Z,0.00
2019-01-19T01:13:43.499Z,0.00
2019-01-19T01:14:43.502Z,0.00
2019-01-19T01:15:43.498Z,0.00
2019-01-19T01:16:43.461Z,0.00
2019-01-19T01:17:43.455Z,0.00
2019-01-19T01:18:43.438Z,0.00
2019-01-19T01:19:43.443Z,0.00
2019-01-19T01:20:43.419Z,0.00
2019-01-19T01:21:43.397Z,0.00
2019-01-19T01:22:43.389Z,0.00
2019-01-19T01:23:43.371Z,0.00
2019-01-19T01:24:43.381Z,0.00
2019-01-19T01:25:43.373Z,0.00
2019-01-19T01:26:43.350Z,0.00
2019-01-19T01:27:43.333Z,0.00
2019-01-19T01:28:43.330Z,0.00
2019-01-19T01:29:43.337Z,0.00
2019-01-19T01:30:43.308Z,0.00
2019-01-19T01:31:43.285Z,0.00
2019-01-19T01:32:43.283Z,0.00
2019-01-19T01:33:43.263Z,0.00
2019-01-19T01:34:43.275Z,0.00
2019-01-19T01:35:43.258Z,0.00
2019-01-19T01:36:43.242Z,0.00
2019-01-19T01:37:43.232Z,0.00
2019-01-19T01:38:43.218Z,0.00
2019-01-19T01:39:43.219Z,0.00
2019-01-19T01:40:43.193Z,0.00
2019-01-19T01:41:43.201Z,0.00
2019-01-19T01:42:43.189Z,0.00
2019-01-19T01:43:43.154Z,0.00
2019-01-19T01:44:43.183Z,0.00
2019-01-19T01:45:43.153Z,0.00
2019-01-19T01:46:43.129Z,0.00
2019-01-19T01:47:43.118Z,0.00
2019-01-19T01:48:43.110Z,0.00
2019-01-19T01:49:43.109Z,0.00
2019-01-19T01:50:43.108Z,0.00
2019-01-19T01:51:43.063Z,0.00
2019-01-19T01:52:43.057Z,0.00
2019-01-19T01:53:43.048Z,0.00
2019-01-19T01:54:43.070Z,0.00
2019-01-19T01:55:43.031Z,0.00
2019-01-19T01:56:43.018Z,0.00
2019-01-19T01:57:43.008Z,0.00
2019-01-19T01:58:42.999Z,0.00
2019-01-19T01:59:42.991Z,0.00
2019-01-19T02:00:43.008Z,0.00
2019-01-19T02:01:42.971Z,0.00
2019-01-19T02:02:42.963Z,0.00
2019-01-19T02:03:42.943Z,0.00
2019-01-19T02:04:42.931Z,0.00
2019-01-19T02:05:42.952Z,0.00
2019-01-19T02:06:42.914Z,0.00
2019-01-19T02:07:42.892Z,0.00
2019-01-19T02:08:42.882Z,0.00
2019-01-19T02:09:42.888Z,0.00
2019-01-19T02:10:42.880Z,0.00
2019-01-19T02:11:42.850Z,0.00
2019-01-19T02:12:42.842Z,0.00
2019-01-19T02:13:42.830Z,0.00
2019-01-19T02:14:42.821Z,0.00
2019-01-19T02:15:42.820Z,0.00
2019-01-19T02:16:42.805Z,0.00
2019-01-19T02:17:42.786Z,0.00
2019-01-19T02:18:42.774Z,0.00
2019-01-19T02:19:42.760Z,0.00
2019-01-19T02:20:42.813Z,0.00
2019-01-19T02:21:42.748Z,0.00
2019-01-19T02:22:42.743Z,0.00
2019-01-19T02:23:42.726Z,0.00
2019-01-19T02:24:42.720Z,0.00
2019-01-19T02:25:42.724Z,0.00
2019-01-19T02:26:42.698Z,0.00
2019-01-19T02:27:42.696Z,0.00
2019-01-19T02:28:42.678Z,0.00
2019-01-19T02:29:42.660Z,0.00
2019-01-19T02:30:42.674Z,0.00
2019-01-19T02:31:42.646Z,0.00
2019-01-19T02:32:42.629Z,0.00
2019-01-19T02:33:42.619Z,0.00
2019-01-19T02:34:42.599Z,0.00
2019-01-19T02:35:48.452Z,0.00
2019-01-19T02:36:43.602Z,0.00
2019-01-19T02:37:42.569Z,0.00
2019-01-19T02:38:42.552Z,0.00
2019-01-19T02:39:42.541Z,0.00
2019-01-19T02:40:42.530Z,0.00
2019-01-19T02:41:42.755Z,0.00
2019-01-19T02:42:42.513Z,0.00
2019-01-19T02:43:42.575Z,0.00
2019-01-19T02:44:42.491Z,0.00
2019-01-19T02:45:42.477Z,0.00
2019-01-19T02:46:42.487Z,0.00
2019-01-19T02:47:42.470Z,0.00
2019-01-19T02:48:42.437Z,0.00
2019-01-19T02:49:42.434Z,0.00
2019-01-19T02:50:42.424Z,0.00
2019-01-19T02:51:42.447Z,0.00
2019-01-19T02:52:42.395Z,0.00
2019-01-19T02:53:42.414Z,0.00
2019-01-19T02:54:42.387Z,0.00
2019-01-19T02:55:42.363Z,0.00
2019-01-19T02:56:42.387Z,0.00
2019-01-19T02:57:42.373Z,0.00
2019-01-19T02:58:42.341Z,0.00
2019-01-19T02:59:42.325Z,0.00
2019-01-19T03:00:42.315Z,0.00
2019-01-19T03:01:42.317Z,0.00
2019-01-19T03:02:42.295Z,0.00
2019-01-19T03:03:42.277Z,0.00
2019-01-19T03:04:42.281Z,0.00
2019-01-19T03:05:42.262Z,0.00
2019-01-19T03:06:42.257Z,0.00
2019-01-19T03:07:42.233Z,0.00
2019-01-19T03:08:42.216Z,0.00
2019-01-19T03:09:42.221Z,0.00
2019-01-19T03:10:42.213Z,0.00
2019-01-19T03:11:42.230Z,0.00
2019-01-19T03:12:42.175Z,0.00
2019-01-19T03:13:42.169Z,0.00
2019-01-19T03:14:42.157Z,0.00
2019-01-19T03:15:42.152Z,0.00
2019-01-19T03:16:42.144Z,0.00
2019-01-19T03:17:42.140Z,0.00
2019-01-19T03:18:42.127Z,0.00
2019-01-19T03:19:42.102Z,0.00
2019-01-19T03:20:42.099Z,0.00
2019-01-19T03:21:42.085Z,0.00
2019-01-19T03:22:42.085Z,0.00
2019-01-19T03:23:42.054Z,0.00
2019-01-19T03:24:42.053Z,0.00
2019-01-19T03:25:42.040Z,0.00
2019-01-19T03:26:42.036Z,0.00
2019-01-19T03:27:42.039Z,0.00
2019-01-19T03:28:42.015Z,0.00
2019-01-19T03:29:41.988Z,0.00
2019-01-19T03:30:41.989Z,0.00
2019-01-19T03:31:41.979Z,0.00
2019-01-19T03:32:41.977Z,0.00
2019-01-19T03:33:41.950Z,0.00
2019-01-19T03:34:41.959Z,0.00
2019-01-19T03:35:41.929Z,0.00
2019-01-19T03:36:41.929Z,0.00
2019-01-19T03:37:41.938Z,0.00
2019-01-19T03:38:41.912Z,0.00
2019-01-19T03:39:41.887Z,0.00
2019-01-19T03:40:41.882Z,0.00
2019-01-19T03:41:41.863Z,0.00
2019-01-19T03:42:41.855Z,0.00
2019-01-19T03:43:41.846Z,0.00
2019-01-19T03:44:41.829Z,0.00
2019-01-19T03:45:41.831Z,0.00
2019-01-19T03:46:41.800Z,0.00
2019-01-19T03:47:41.823Z,0.00
2019-01-19T03:48:41.790Z,0.00
2019-01-19T03:49:41.782Z,0.00
2019-01-19T03:50:41.758Z,0.00
2019-01-19T03:51:41.754Z,0.00
2019-01-19T03:52:41.766Z,0.00
2019-01-19T03:53:41.730Z,0.00
2019-01-19T03:54:41.716Z,0.00
2019-01-19T03:55:41.700Z,0.00
2019-01-19T03:56:41.703Z,0.00
2019-01-19T03:57:41.714Z,0.00
2019-01-19T03:58:41.674Z,0.00
2019-01-19T03:59:41.674Z,0.00
2019-01-19T04:00:41.662Z,0.00
2019-01-19T04:01:41.641Z,0.00
2019-01-19T04:02:41.638Z,0.00
2019-01-19T04:03:41.637Z,0.00
2019-01-19T04:04:41.611Z,0.00
2019-01-19T04:05:41.604Z,0.00
2019-01-19T04:06:41.589Z,0.00
2019-01-19T04:07:41.581Z,0.00
2019-01-19T04:08:41.585Z,0.00
2019-01-19T04:09:41.559Z,0.00
2019-01-19T04:10:41.544Z,0.00
2019-01-19T04:11:41.535Z,0.00
2019-01-19T04:12:41.514Z,0.00
2019-01-19T04:13:41.522Z,0.00
2019-01-19T04:14:41.498Z,0.00
2019-01-19T04:15:41.488Z,0.00
2019-01-19T04:16:41.487Z,0.00
2019-01-19T04:17:41.472Z,0.00
2019-01-19T04:18:41.472Z,0.00
2019-01-19T04:19:41.444Z,0.00
2019-01-19T04:20:41.434Z,0.00
2019-01-19T04:21:41.423Z,0.00
2019-01-19T04:22:41.409Z,0.00
2019-01-19T04:23:41.432Z,0.00
2019-01-19T04:24:41.396Z,0.00
2019-01-19T04:25:41.388Z,0.00
2019-01-19T04:26:41.371Z,0.00
2019-01-19T04:27:41.356Z,0.00
2019-01-19T04:28:41.373Z,0.00
2019-01-19T04:29:41.341Z,0.00
2019-01-19T04:30:41.325Z,0.00
2019-01-19T04:31:41.317Z,0.00
2019-01-19T04:32:41.325Z,0.00
2019-01-19T04:33:41.317Z,0.00
2019-01-19T04:34:41.305Z,0.00
2019-01-19T04:35:41.279Z,0.00
2019-01-19T04:36:41.274Z,0.00
2019-01-19T04:37:41.243Z,0.00
2019-01-19T04:38:41.275Z,0.00
2019-01-19T04:39:41.221Z,0.00
2019-01-19T04:40:41.222Z,0.00
2019-01-19T04:41:41.218Z,0.00
2019-01-19T04:42:41.213Z,0.00
2019-01-19T04:43:41.185Z,0.00
2019-01-19T04:44:41.185Z,0.00
2019-01-19T04:45:41.170Z,0.00
2019-01-19T04:46:41.142Z,0.00
2019-01-19T04:47:41.138Z,0.00
2019-01-19T04:48:41.136Z,0.00
2019-01-19T04:49:41.134Z,0.00
2019-01-19T04:50:41.118Z,0.00
2019-01-19T04:51:41.087Z,0.00
2019-01-19T04:52:41.102Z,0.00
2019-01-19T04:53:41.068Z,0.00
2019-01-19T04:54:41.087Z,0.00
2019-01-19T04:55:41.049Z,0.00
2019-01-19T04:56:41.042Z,0.00
2019-01-19T04:57:41.031Z,0.00
2019-01-19T04:58:41.039Z,0.00
2019-01-19T04:59:41.034Z,0.00
2019-01-19T05:00:41.008Z,0.00
2019-01-19T05:01:40.983Z,0.00
2019-01-19T05:02:40.988Z,0.00
2019-01-19T05:03:41.018Z,0.00
2019-01-19T05:04:40.966Z,0.00
2019-01-19T05:05:40.945Z,0.00
2019-01-19T05:06:40.936Z,0.00
2019-01-19T05:07:40.920Z,0.00
2019-01-19T05:08:40.909Z,0.00
2019-01-19T05:09:40.903Z,0.00
2019-01-19T05:10:40.882Z,0.00
2019-01-19T05:11:40.874Z,0.00
2019-01-19T05:12:40.862Z,0.00
2019-01-19T05:13:40.857Z,0.00
2019-01-19T05:14:40.860Z,0.00
2019-01-19T05:15:40.827Z,0.00
2019-01-19T05:16:40.820Z,0.00
2019-01-19T05:17:40.802Z,0.00
2019-01-19T05:18:40.804Z,0.00
2019-01-19T05:19:40.826Z,0.00
2019-01-19T05:20:40.788Z,0.00
2019-01-19T05:21:40.779Z,0.00
2019-01-19T05:22:40.752Z,0.00
2019-01-19T05:23:40.744Z,0.00
2019-01-19T05:24:40.741Z,0.00
2019-01-19T05:25:40.740Z,0.00
2019-01-19T05:26:40.712Z,0.00
2019-01-19T05:27:40.709Z,0.00
2019-01-19T05:28:40.680Z,0.00
2019-01-19T05:29:40.667Z,0.00
2019-01-19T05:30:40.675Z,0.00
2019-01-19T05:31:40.651Z,0.00
2019-01-19T05:32:40.642Z,0.00
2019-01-19T05:33:40.627Z,0.00
2019-01-19T05:34:40.615Z,0.00
2019-01-19T05:35:40.629Z,0.00
2019-01-19T05:36:40.604Z,0.00
2019-01-19T05:37:40.597Z,0.00
2019-01-19T05:38:40.595Z,0.00
2019-01-19T05:39:40.559Z,0.00
2019-01-19T05:40:40.579Z,0.00
2019-01-19T05:41:40.543Z,0.00
2019-01-19T05:42:40.521Z,0.00
2019-01-19T05:43:40.539Z,0.00
2019-01-19T05:44:40.509Z,0.00
2019-01-19T05:45:40.512Z,0.00
2019-01-19T05:46:40.492Z,0.00
2019-01-19T05:47:40.481Z,0.00
2019-01-19T05:48:40.468Z,0.00
2019-01-19T05:49:40.459Z,0.00
2019-01-19T05:50:40.453Z,0.00
2019-01-19T05:51:40.443Z,0.00
2019-01-19T05:52:40.417Z,0.00
2019-01-19T05:53:40.405Z,0.00
2019-01-19T05:54:40.401Z,0.00
2019-01-19T05:55:40.409Z,0.00
2019-01-19T05:56:40.377Z,0.00
2019-01-19T05:57:40.379Z,0.00
2019-01-19T05:58:40.361Z,0.00
2019-01-19T05:59:40.347Z,0.00
2019-01-19T06:00:40.352Z,0.00
2019-01-19T06:01:40.335Z,0.00
2019-01-19T06:02:40.321Z,0.00
2019-01-19T06:03:40.303Z,0.00
2019-01-19T06:04:40.282Z,0.00
2019-01-19T06:05:40.305Z,0.00
2019-01-19T06:06:46.675Z,0.00
2019-01-19T06:07:41.760Z,0.00
2019-01-19T06:08:40.254Z,0.00
2019-01-19T06:09:40.240Z,0.00
2019-01-19T06:10:40.225Z,0.00
2019-01-19T06:11:40.233Z,0.00
2019-01-19T06:12:40.201Z,0.00
2019-01-19T06:13:40.189Z,0.00
2019-01-19T06:14:40.189Z,0.00
2019-01-19T06:15:40.178Z,0.00
2019-01-19T06:16:40.169Z,0.00
2019-01-19T06:17:40.151Z,0.00
2019-01-19T06:18:40.141Z,0.00
2019-01-19T06:19:40.133Z,0.00
2019-01-19T06:20:40.118Z,0.00
2019-01-19T06:21:40.124Z,0.00
2019-01-19T06:22:40.095Z,0.00
2019-01-19T06:23:40.080Z,0.00
2019-01-19T06:24:40.115Z,0.00
2019-01-19T06:25:40.060Z,0.00
2019-01-19T06:26:40.080Z,0.00
2019-01-19T06:27:40.036Z,0.00
2019-01-19T06:28:40.037Z,0.00
2019-01-19T06:29:40.044Z,0.00
2019-01-19T06:30:40.041Z,0.00
2019-01-19T06:31:40.019Z,0.00
2019-01-19T06:32:39.977Z,0.00
2019-01-19T06:33:39.974Z,0.00
2019-01-19T06:34:39.958Z,0.00
2019-01-19T06:35:39.944Z,0.00
2019-01-19T06:36:39.967Z,0.00
2019-01-19T06:37:39.938Z,0.00
2019-01-19T06:38:39.915Z,0.00
2019-01-19T06:39:39.913Z,0.00
2019-01-19T06:40:39.890Z,0.00
2019-01-19T06:41:39.925Z,0.00
2019-01-19T06:42:39.872Z,0.00
2019-01-19T06:43:39.861Z,0.00
2019-01-19T06:44:39.872Z,0.00
2019-01-19T06:45:39.842Z,0.00
2019-01-19T06:46:39.837Z,0.00
2019-01-19T06:47:39.832Z,0.00
2019-01-19T06:48:39.810Z,0.00
2019-01-19T06:49:39.793Z,0.00
2019-01-19T06:50:39.789Z,0.00
2019-01-19T06:51:39.779Z,0.00
2019-01-19T06:52:39.788Z,0.00
2019-01-19T06:53:39.760Z,0.00
2019-01-19T06:54:39.748Z,0.00
2019-01-19T06:55:39.738Z,0.00
2019-01-19T06:56:39.739Z,0.00
2019-01-19T06:57:39.735Z,0.00
2019-01-19T06:58:39.694Z,0.00
2019-01-19T06:59:39.712Z,0.00
2019-01-19T07:00:39.698Z,0.00
2019-01-19T07:01:39.666Z,0.00
2019-01-19T07:02:39.703Z,0.00
2019-01-19T07:03:39.646Z,0.00
2019-01-19T07:04:39.629Z,0.00
2019-01-19T07:05:39.647Z,0.00
2019-01-19T07:06:39.629Z,0.00
2019-01-19T07:07:39.620Z,0.00
2019-01-19T07:08:39.595Z,0.00
2019-01-19T07:09:39.577Z,0.00
2019-01-19T07:10:39.573Z,0.00
2019-01-19T07:11:39.552Z,0.00
2019-01-19T07:12:39.572Z,0.00
2019-01-19T07:13:39.547Z,0.00
2019-01-19T07:14:39.523Z,0.00
2019-01-19T07:15:39.511Z,0.00
2019-01-19T07:16:39.493Z,0.00
2019-01-19T07:17:39.508Z,0.00
2019-01-19T07:18:39.485Z,0.00
2019-01-19T07:19:39.459Z,0.00
2019-01-19T07:20:39.455Z,0.00
2019-01-19T07:21:39.462Z,0.00
2019-01-19T07:22:39.779Z,0.00
2019-01-19T07:23:39.419Z,0.00
2019-01-19T07:24:39.419Z,0.00
2019-01-19T07:25:39.420Z,0.00
2019-01-19T07:26:39.384Z,5.62
2019-01-19T07:27:39.416Z,5.62
2019-01-19T07:28:39.390Z,5.62
2019-01-19T07:29:39.363Z,5.62
2019-01-19T07:30:39.363Z,5.62
2019-01-19T07:31:39.333Z,5.62
2019-01-19T07:32:39.349Z,5.62
2019-01-19T07:33:39.329Z,5.62
2019-01-19T07:34:39.304Z,5.62
2019-01-19T07:35:39.287Z,5.62
2019-01-19T07:36:39.289Z,5.62
2019-01-19T07:37:39.271Z,5.62
2019-01-19T07:38:39.269Z,5.62
2019-01-19T07:39:39.259Z,5.62
2019-01-19T07:40:39.240Z,5.62
2019-01-19T07:41:39.236Z,5.62
2019-01-19T07:42:39.213Z,5.62
2019-01-19T07:43:39.222Z,5.62
2019-01-19T07:44:39.186Z,5.62
2019-01-19T07:45:39.186Z,5.62
2019-01-19T07:46:39.196Z,11.25
2019-01-19T07:47:39.164Z,11.25
2019-01-19T07:48:39.176Z,11.25
2019-01-19T07:49:39.140Z,11.25
2019-01-19T07:50:39.122Z,11.25
2019-01-19T07:51:39.114Z,11.25
2019-01-19T07:52:39.108Z,11.25
2019-01-19T07:53:39.116Z,11.25
2019-01-19T07:54:39.102Z,11.25
2019-01-19T07:55:39.070Z,11.25
2019-01-19T07:56:39.084Z,11.25
2019-01-19T07:57:39.050Z,11.25
2019-01-19T07:58:39.057Z,11.25
2019-01-19T07:59:39.024Z,11.25
2019-01-19T08:00:39.017Z,11.25
2019-01-19T08:01:38.998Z,11.25
2019-01-19T08:02:39.025Z,11.25
2019-01-19T08:03:39.012Z,11.25
2019-01-19T08:04:38.974Z,11.25
2019-01-19T08:05:38.966Z,11.25
2019-01-19T08:06:38.954Z,11.25
2019-01-19T08:07:38.955Z,11.25
2019-01-19T08:08:38.971Z,11.25
2019-01-19T08:09:38.930Z,11.25
2019-01-19T08:10:38.911Z,11.25
2019-01-19T08:11:38.893Z,11.25
2019-01-19T08:12:38.876Z,11.25
2019-01-19T08:13:38.881Z,11.25
2019-01-19T08:14:38.880Z,11.25
2019-01-19T08:15:38.889Z,11.25
2019-01-19T08:16:38.845Z,11.25
2019-01-19T08:17:38.832Z,11.25
2019-01-19T08:18:38.806Z,11.25
2019-01-19T08:19:38.821Z,11.25
2019-01-19T08:20:38.791Z,11.25
2019-01-19T08:21:38.783Z,11.25
2019-01-19T08:22:38.780Z,11.25
2019-01-19T08:23:38.767Z,16.88
2019-01-19T08:24:38.764Z,16.88
2019-01-19T08:25:38.744Z,16.88
2019-01-19T08:26:38.720Z,16.88
2019-01-19T08:27:38.738Z,16.88
2019-01-19T08:28:38.721Z,16.88
2019-01-19T08:29:38.783Z,16.88
2019-01-19T08:30:38.692Z,16.88
2019-01-19T08:31:38.669Z,16.88
2019-01-19T08:32:38.669Z,16.88
2019-01-19T08:33:38.657Z,16.88
2019-01-19T08:34:38.667Z,16.88
2019-01-19T08:35:38.633Z,16.88
2019-01-19T08:36:38.627Z,16.88
2019-01-19T08:37:38.610Z,16.88
2019-01-19T08:38:38.611Z,16.88
2019-01-19T08:39:38.601Z,16.88
2019-01-19T08:40:38.572Z,16.88
2019-01-19T08:41:38.570Z,16.88
2019-01-19T08:42:38.569Z,16.88
2019-01-19T08:43:38.541Z,16.88
2019-01-19T08:44:38.576Z,16.88
2019-01-19T08:45:38.520Z,16.88
2019-01-19T08:46:38.509Z,16.88
2019-01-19T08:47:38.514Z,16.88
2019-01-19T08:48:38.488Z,16.88
2019-01-19T08:49:38.489Z,22.50
2019-01-19T08:50:38.503Z,22.50
2019-01-19T08:51:38.476Z,22.50
2019-01-19T08:52:38.441Z,22.50
2019-01-19T08:53:38.443Z,22.50
2019-01-19T08:54:38.412Z,22.50
2019-01-19T08:55:38.432Z,22.50
2019-01-19T08:56:38.407Z,22.50
2019-01-19T08:57:38.383Z,22.50
2019-01-19T08:58:38.384Z,22.50
2019-01-19T08:59:38.369Z,22.50
2019-01-19T09:00:38.384Z,22.50
2019-01-19T09:01:38.342Z,22.50
2019-01-19T09:02:38.336Z,22.50
2019-01-19T09:03:38.319Z,22.50
2019-01-19T09:04:38.331Z,22.50
2019-01-19T09:05:38.318Z,22.50
2019-01-19T09:06:38.306Z,22.50
2019-01-19T09:07:38.304Z,22.50
2019-01-19T09:08:38.282Z,22.50
2019-01-19T09:09:38.259Z,22.50
2019-01-19T09:10:38.282Z,22.50
2019-01-19T09:11:38.284Z,22.50
2019-01-19T09:12:38.222Z,22.50
2019-01-19T09:13:38.229Z,22.50
2019-01-19T09:14:38.213Z,22.50
2019-01-19T09:15:38.210Z,28.12
2019-01-19T09:16:40.534Z,28.12
2019-01-19T09:17:38.176Z,28.12
2019-01-19T09:18:38.167Z,28.12
2019-01-19T09:19:38.146Z,28.12
2019-01-19T09:20:38.156Z,28.12
2019-01-19T09:21:38.122Z,28.12
2019-01-19T09:22:38.122Z,28.12
2019-01-19T09:23:38.097Z,28.12
2019-01-19T09:24:38.092Z,28.12
2019-01-19T09:25:38.106Z,28.12
2019-01-19T09:26:38.074Z,28.12
2019-01-19T09:27:38.064Z,28.12
2019-01-19T09:28:38.099Z,28.12
2019-01-19T09:29:38.072Z,28.12
2019-01-19T09:30:38.079Z,28.12
2019-01-19T09:31:38.030Z,28.12
2019-01-19T09:32:37.998Z,28.12
2019-01-19T09:33:37.998Z,28.12
2019-01-19T09:34:38.006Z,28.12
2019-01-19T09:35:37.985Z,28.12
2019-01-19T09:36:37.974Z,28.12
2019-01-19T09:37:40.934Z,28.12
2019-01-19T09:38:37.940Z,28.12
2019-01-19T09:39:37.932Z,28.12
2019-01-19T09:40:37.941Z,28.12
2019-01-19T09:41:37.926Z,28.12
2019-01-19T09:42:37.902Z,28.12
2019-01-19T09:43:37.897Z,28.12
2019-01-19T09:44:37.876Z,28.12
2019-01-19T09:45:37.874Z,28.12
2019-01-19T09:46:37.873Z,28.12
2019-01-19T09:47:37.843Z,28.12
2019-01-19T09:48:37.831Z,28.12
2019-01-19T09:49:37.840Z,28.12
2019-01-19T09:50:39.123Z,28.12
2019-01-19T09:51:37.891Z,28.12
2019-01-19T09:52:37.781Z,28.12
2019-01-19T09:53:37.773Z,28.12
2019-01-19T09:54:37.770Z,28.12
2019-01-19T09:55:37.756Z,28.12
2019-01-19T09:56:37.766Z,28.12
2019-01-19T09:57:37.747Z,28.12
2019-01-19T09:58:37.725Z,28.12
2019-01-19T09:59:37.713Z,28.12
2019-01-19T10:00:37.943Z,28.12
2019-01-19T10:01:38.711Z,28.12
2019-01-19T10:02:37.681Z,28.12
2019-01-19T10:03:37.672Z,28.12
2019-01-19T10:04:37.657Z,28.12
2019-01-19T10:05:37.653Z,28.12
2019-01-19T10:06:37.659Z,33.75
2019-01-19T10:07:37.622Z,33.75
2019-01-19T10:08:37.617Z,33.75
2019-01-19T10:09:37.594Z,33.75
2019-01-19T10:10:37.595Z,33.75
2019-01-19T10:11:37.591Z,33.75
2019-01-19T10:12:37.591Z,33.75
2019-01-19T10:13:37.558Z,33.75
2019-01-19T10:14:37.540Z,33.75
2019-01-19T10:15:37.525Z,33.75
2019-01-19T10:16:37.519Z,33.75
2019-01-19T10:17:37.528Z,33.75
2019-01-19T10:18:37.503Z,33.75
2019-01-19T10:19:37.481Z,33.75
2019-01-19T10:20:37.479Z,33.75
2019-01-19T10:21:37.470Z,33.75
2019-01-19T10:22:37.474Z,33.75
2019-01-19T10:23:37.451Z,33.75
2019-01-19T10:24:37.438Z,33.75
2019-01-19T10:25:37.431Z,33.75
2019-01-19T10:26:37.418Z,33.75
2019-01-19T10:27:37.609Z,33.75
2019-01-19T10:28:37.403Z,33.75
2019-01-19T10:29:37.374Z,33.75
2019-01-19T10:30:37.360Z,33.75
2019-01-19T10:31:37.365Z,33.75
2019-01-19T10:32:37.374Z,33.75
2019-01-19T10:33:37.532Z,33.75
2019-01-19T10:34:37.329Z,33.75
2019-01-19T10:35:37.324Z,33.75
2019-01-19T10:36:37.295Z,33.75
2019-01-19T10:37:37.313Z,33.75
2019-01-19T10:38:37.274Z,33.75
2019-01-19T10:39:37.275Z,28.12
2019-01-19T10:40:37.253Z,28.12
2019-01-19T10:41:41.039Z,28.12
2019-01-19T10:42:37.282Z,28.12
2019-01-19T10:43:37.225Z,28.12
2019-01-19T10:44:37.224Z,33.75
2019-01-19T10:45:37.198Z,33.75
2019-01-19T10:46:37.207Z,33.75
2019-01-19T10:47:37.192Z,33.75
2019-01-19T10:48:37.173Z,33.75
2019-01-19T10:49:37.162Z,33.75
2019-01-19T10:50:37.166Z,33.75
2019-01-19T10:51:37.138Z,33.75
2019-01-19T10:52:37.165Z,33.75
2019-01-19T10:53:37.117Z,33.75
2019-01-19T10:54:37.100Z,33.75
2019-01-19T10:55:37.108Z,33.75
2019-01-19T10:56:37.096Z,33.75
2019-01-19T10:57:37.081Z,33.75
2019-01-19T10:58:37.075Z,33.75
2019-01-19T10:59:37.052Z,33.75
2019-01-19T11:00:37.033Z,33.75
2019-01-19T11:01:37.033Z,28.12
2019-01-19T11:02:37.026Z,33.75
2019-01-19T11:03:37.019Z,33.75
2019-01-19T11:04:36.993Z,33.75
2019-01-19T11:05:36.987Z,33.75
2019-01-19T11:06:36.965Z,33.75
2019-01-19T11:07:36.979Z,33.75
2019-01-19T11:08:36.981Z,33.75
2019-01-19T11:09:36.955Z,33.75
2019-01-19T11:10:36.986Z,33.75
2019-01-19T11:11:36.942Z,33.75
2019-01-19T11:12:36.908Z,33.75
2019-01-19T11:13:36.929Z,33.75
2019-01-19T11:14:36.883Z,33.75
2019-01-19T11:15:36.870Z,33.75
2019-01-19T11:16:36.861Z,33.75
2019-01-19T11:17:36.867Z,33.75
2019-01-19T11:18:36.905Z,33.75
2019-01-19T11:19:36.831Z,33.75
2019-01-19T11:20:36.820Z,33.75
2019-01-19T11:21:36.811Z,33.75
2019-01-19T11:22:36.831Z,33.75
2019-01-19T11:23:39.812Z,33.75
2019-01-19T11:24:36.787Z,33.75
2019-01-19T11:25:36.778Z,33.75
2019-01-19T11:26:36.772Z,28.12
2019-01-19T11:27:36.777Z,28.12
2019-01-19T11:28:36.748Z,28.12
2019-01-19T11:29:36.725Z,33.75
2019-01-19T11:30:36.703Z,33.75
2019-01-19T11:31:36.714Z,33.75
2019-01-19T11:32:36.689Z,33.75
2019-01-19T11:33:36.686Z,33.75
2019-01-19T11:34:36.663Z,33.75
2019-01-19T11:35:36.669Z,33.75
2019-01-19T11:36:36.636Z,33.75
2019-01-19T11:37:36.646Z,33.75
2019-01-19T11:38:36.671Z,33.75
2019-01-19T11:39:36.653Z,33.75
2019-01-19T11:40:36.594Z,33.75
2019-01-19T11:41:36.596Z,33.75
2019-01-19T11:42:36.571Z,33.75
2019-01-19T11:43:36.586Z,33.75
2019-01-19T11:44:36.555Z,33.75
2019-01-19T11:45:36.544Z,33.75
2019-01-19T11:46:36.536Z,33.75
2019-01-19T11:47:36.535Z,33.75
2019-01-19T11:48:36.519Z,33.75
2019-01-19T11:49:36.524Z,33.75
2019-01-19T11:50:36.488Z,33.75
2019-01-19T11:51:37.208Z,33.75
2019-01-19T11:52:36.471Z,33.75
2019-01-19T11:53:36.484Z,33.75
2019-01-19T11:54:36.438Z,33.75
2019-01-19T11:55:36.459Z,33.75
2019-01-19T11:56:36.431Z,39.38
2019-01-19T11:57:36.419Z,39.38
2019-01-19T11:58:36.420Z,33.75
2019-01-19T11:59:36.391Z,33.75
2019-01-19T12:00:36.409Z,33.75
2019-01-19T12:01:36.384Z,33.75
2019-01-19T12:02:37.133Z,33.75
2019-01-19T12:03:36.396Z,33.75
2019-01-19T12:04:36.336Z,33.75
2019-01-19T12:05:36.341Z,33.75
2019-01-19T12:06:36.307Z,39.38
2019-01-19T12:07:36.300Z,39.38
2019-01-19T12:08:36.294Z,39.38
2019-01-19T12:09:36.301Z,39.38
2019-01-19T12:10:36.286Z,39.38
2019-01-19T12:11:36.271Z,39.38
2019-01-19T12:12:36.260Z,39.38
2019-01-19T12:13:36.239Z,39.38
2019-01-19T12:14:36.263Z,39.38
2019-01-19T12:15:36.207Z,39.38
2019-01-19T12:16:36.206Z,39.38
2019-01-19T12:17:36.202Z,33.75
2019-01-19T12:18:36.186Z,33.75
2019-01-19T12:19:36.189Z,33.75
2019-01-19T12:20:36.167Z,33.75
2019-01-19T12:21:36.147Z,33.75
2019-01-19T12:22:36.178Z,33.75
2019-01-19T12:23:36.129Z,33.75
2019-01-19T12:24:36.133Z,33.75
2019-01-19T12:25:36.106Z,33.75
2019-01-19T12:26:36.097Z,33.75
2019-01-19T12:27:36.080Z,39.38
2019-01-19T12:28:36.111Z,33.75
2019-01-19T12:29:36.079Z,33.75
2019-01-19T12:30:36.059Z,33.75
2019-01-19T12:31:36.065Z,33.75
2019-01-19T12:32:36.073Z,33.75
2019-01-19T12:33:36.025Z,33.75
2019-01-19T12:34:36.038Z,33.75
2019-01-19T12:35:36.003Z,33.75
2019-01-19T12:36:36.015Z,33.75
2019-01-19T12:37:35.977Z,33.75
2019-01-19T12:38:35.966Z,33.75
2019-01-19T12:39:35.951Z,33.75
2019-01-19T12:40:35.955Z,33.75
2019-01-19T12:41:35.960Z,33.75
2019-01-19T12:42:35.911Z,33.75
2019-01-19T12:43:35.903Z,33.75
2019-01-19T12:44:35.901Z,33.75
2019-01-19T12:45:35.895Z,33.75
2019-01-19T12:46:35.869Z,33.75
2019-01-19T12:47:35.863Z,28.12
2019-01-19T12:48:35.857Z,28.12
2019-01-19T12:49:35.860Z,28.12
2019-01-19T12:50:35.848Z,28.12
2019-01-19T12:51:35.820Z,28.12
2019-01-19T12:52:35.817Z,28.12
2019-01-19T12:53:35.788Z,28.12
2019-01-19T12:54:35.794Z,28.12
2019-01-19T12:55:35.804Z,28.12
2019-01-19T12:56:35.753Z,28.12
2019-01-19T12:57:35.753Z,28.12
2019-01-19T12:58:35.755Z,28.12
2019-01-19T12:59:35.742Z,28.12
2019-01-19T13:00:35.739Z,28.12
2019-01-19T13:01:35.715Z,22.50
2019-01-19T13:02:35.700Z,22.50
2019-01-19T13:03:35.773Z,22.50
2019-01-19T13:04:35.678Z,22.50
2019-01-19T13:05:35.694Z,22.50
2019-01-19T13:06:35.648Z,22.50
2019-01-19T13:07:35.653Z,22.50